Back to Top
Banner_Quays_at_Mast_2020.jpeg
previous arrow
next arrow

Port Arrivals Report (AIS)

This report is generated from collected AIS (Automated Identification System) signals from vessels entering port.

IMO MMSI Class Flag Vessel Name Vessel type Nav Status Destination Call Sign Latitude Longitude Speed (kts) Course (T) Draught (m) LOA (m) Beam (m) Timestamp
0 232016609 B GB RNLI LIFEBOAT B-909 SAR. - 51.6918 -8.52919 14.2 86.4 0 8 2 2026-08-15 20:08:21
0 205601930 B BE CARIBE Pleasure craft - OP6019 51.6882 -8.49907 15.3 349.8 0 14 4 2026-08-15 20:07:50
0 250014774 B IE HARPY DREDGING / UNDERWATER Ops. - EIA3240 51.6937 -8.53074 12.1 116.9 0 13 4 2026-08-15 20:02:02
0 250014182 A IE LADY CATHERINE PASSENGER. - EIA2647 51.6885 -8.49914 10.1 358.4 0 0 0 2026-08-15 17:46:57
0 250005179 B IE FREYA SAILING. - EI-TY-4 51.6882 -8.49998 8 347.5 0 15 5 2026-08-15 16:53:49
0 250014886 B IE SALUBRIOUS LADY Pleasure craft - EIA3352 51.6873 -8.49891 6 354.8 0 0 0 2026-08-15 16:36:27
0 250013980 B IE MARITANA Pleasure craft - EIA2446 51.6885 -8.4978 6.1 354.4 0 12 4 2026-08-15 15:55:04
0 232041642 B GB CALAO SAILING. - MLIZ7 51.6879 -8.49692 1.6 3 0 14 4 2026-08-15 15:19:18
0 250001462 B IE SWEET DREAMS SAILING. - EIFI5 51.6881 -8.49806 3.9 350.4 0 11 4 2026-08-15 14:28:10
0 250014182 A IE LADY CATHERINE PASSENGER. - EIA2647 51.689 -8.5001 9.9 341.8 0 0 0 2026-08-15 13:26:17
0 232022902 B GB TARA SAILING. - MFOE6) 51.6877 -8.49876 2.1 354.5 0 11 4 2026-08-15 12:55:59
0 232044206 B GB NARRIE Pleasure craft - MMJW9 51.6872 -8.49797 16.9 348.2 0 14 5 2026-08-15 12:05:56
0 232016609 B GB RNLI LIFEBOAT B-909 SAR. - 51.6898 -8.50105 23.4 350.7 0 8 2 2026-08-15 10:40:59
0 227694770 B FR COFARE Pleasure craft - FGE9692 51.691 -8.49944 14.8 347.4 0 12 4 2026-08-15 08:59:06
0 250004156 A IE F/V BREIZH ARVOR II FISHING. - FISHING EIRX3 51.6887 -8.49841 9.4 347.4 3.2 23 6 2026-08-15 04:40:03
0 250005343 B IE ILEN PASSENGER. - EIUO2 51.6873 -8.50044 2.7 337.9 0 15 3 2026-08-14 23:56:30
0 250006035 B IE VALFREYA SAILING. - EI-XB-6 51.6879 -8.49484 5.3 26.4 0 10 3 2026-08-14 20:14:10
0 250014243 B IE PRIVATEER SAILING. - EIA2708 51.6879 -8.49588 4.7 321.7 0 12 4 2026-08-14 20:13:33
0 227447490 B FR MALOERA SAILING. - 51.6879 -8.49849 5.9 13.6 0 13 5 2026-08-14 16:58:11
0 235112901 B GB LORNA DOONE SAILING. - 2IUK5 51.6885 -8.49884 4.5 350.6 0 13 4 2026-08-14 16:36:03